createdAt,value
2018-05-01T00:02:02.003Z,10.70
2018-05-01T00:04:29.643Z,10.40
2018-05-01T00:06:57.180Z,10.07
2018-05-01T00:09:24.747Z,10.73
2018-05-01T00:11:52.307Z,9.83
2018-05-01T00:14:19.836Z,9.77
2018-05-01T00:16:47.382Z,9.67
2018-05-01T00:19:15.082Z,10.77
2018-05-01T00:21:42.667Z,10.60
2018-05-01T00:24:10.279Z,10.40
2018-05-01T00:26:38.781Z,10.60
2018-05-01T00:29:06.630Z,10.77
2018-05-01T00:31:34.147Z,10.93
2018-05-01T00:34:01.810Z,10.87
2018-05-01T00:36:29.394Z,11.20
2018-05-01T00:38:58.203Z,11.13
2018-05-01T00:41:25.798Z,11.80
2018-05-01T00:43:53.324Z,11.57
2018-05-01T00:46:20.921Z,11.20
2018-05-01T00:48:48.447Z,10.40
2018-05-01T00:51:15.986Z,10.83
2018-05-01T00:53:43.582Z,10.90
2018-05-01T00:56:11.180Z,10.93
2018-05-01T00:58:38.693Z,10.90
2018-05-01T01:01:06.374Z,11.43
2018-05-01T01:03:33.912Z,10.77
2018-05-01T01:06:01.457Z,10.43
2018-05-01T01:08:29.030Z,10.77
2018-05-01T01:10:56.589Z,10.53
2018-05-01T01:13:24.192Z,9.80
2018-05-01T01:15:51.806Z,10.50
2018-05-01T01:18:19.398Z,10.53
2018-05-01T01:20:47.012Z,10.33
2018-05-01T01:23:14.582Z,10.10
2018-05-01T01:25:42.247Z,9.93
2018-05-01T01:28:09.901Z,10.13
2018-05-01T01:30:37.590Z,10.90
2018-05-01T01:33:05.706Z,9.70
2018-05-01T01:35:32.850Z,9.70
2018-05-01T01:37:59.880Z,9.77
2018-05-01T01:40:26.942Z,10.17
2018-05-01T01:42:53.980Z,9.50
2018-05-01T01:45:21.565Z,10.37
2018-05-01T01:47:48.679Z,9.83
2018-05-01T01:50:16.137Z,9.30
2018-05-01T01:52:43.194Z,10.00
2018-05-01T01:55:10.273Z,9.13
2018-05-01T01:57:37.316Z,9.60
2018-05-01T02:00:04.869Z,9.50
2018-05-01T02:02:32.086Z,9.53
2018-05-01T02:04:59.182Z,9.33
2018-05-01T02:07:26.345Z,9.13
2018-05-01T02:09:54.031Z,10.20
2018-05-01T02:12:21.089Z,9.30
2018-05-01T02:14:48.145Z,9.20
2018-05-01T02:17:15.197Z,9.67
2018-05-01T02:19:42.567Z,9.10
2018-05-01T02:22:09.723Z,9.20
2018-05-01T02:24:36.842Z,9.60
2018-05-01T02:27:03.964Z,9.30
2018-05-01T02:29:31.005Z,9.57
2018-05-01T02:31:58.075Z,9.57
2018-05-01T02:34:25.116Z,9.33
2018-05-01T02:36:52.976Z,9.60
2018-05-01T02:39:20.031Z,9.20
2018-05-01T02:41:47.435Z,9.30
2018-05-01T02:44:14.448Z,9.70
2018-05-01T02:46:41.574Z,9.80
2018-05-01T02:49:08.611Z,10.07
2018-05-01T02:51:35.638Z,9.83
2018-05-01T02:54:02.674Z,9.40
2018-05-01T02:56:30.044Z,9.70
2018-05-01T02:58:57.057Z,9.80
2018-05-01T03:01:24.968Z,9.87
2018-05-01T03:03:52.045Z,9.50
2018-05-01T03:06:19.099Z,9.33
2018-05-01T03:08:46.169Z,9.57
2018-05-01T03:11:13.236Z,9.57
2018-05-01T03:13:40.720Z,8.60
2018-05-01T03:16:07.779Z,9.63
2018-05-01T03:18:34.863Z,9.20
2018-05-01T03:21:01.948Z,8.83
2018-05-01T03:23:29.014Z,9.30
2018-05-01T03:25:56.370Z,9.00
2018-05-01T03:28:23.403Z,9.13
2018-05-01T03:30:50.493Z,8.93
2018-05-01T03:33:17.573Z,8.90
2018-05-01T03:35:44.654Z,9.03
2018-05-01T03:38:11.694Z,9.03
2018-05-01T03:40:38.767Z,9.63
2018-05-01T03:43:05.841Z,9.87
2018-05-01T03:45:32.905Z,9.20
2018-05-01T03:47:59.986Z,10.00
2018-05-01T03:50:27.004Z,9.33
2018-05-01T03:52:54.556Z,8.97
2018-05-01T03:55:21.581Z,9.13
2018-05-01T03:57:48.662Z,9.07
2018-05-01T04:00:15.733Z,8.90
2018-05-01T04:02:42.779Z,9.20
2018-05-01T04:05:09.805Z,8.50
2018-05-01T04:07:36.853Z,8.70
2018-05-01T04:10:03.936Z,9.03
2018-05-01T04:12:31.409Z,8.93
2018-05-01T04:14:58.547Z,8.70
2018-05-01T04:17:26.630Z,8.70
2018-05-01T04:19:53.986Z,8.83
2018-05-01T04:22:21.074Z,8.90
2018-05-01T04:24:48.929Z,9.13
2018-05-01T04:27:15.978Z,8.70
2018-05-01T04:29:43.331Z,8.67
2018-05-01T04:32:10.436Z,8.60
2018-05-01T04:34:37.506Z,9.03
2018-05-01T04:37:04.581Z,9.00
2018-05-01T04:39:31.629Z,8.80
2018-05-01T04:41:58.788Z,8.90
2018-05-01T04:44:25.822Z,9.40
2018-05-01T04:46:52.883Z,8.60
2018-05-01T04:49:19.962Z,8.50
2018-05-01T04:51:47.053Z,8.80
2018-05-01T04:54:14.204Z,8.73
2018-05-01T04:56:41.880Z,8.50
2018-05-01T04:59:08.936Z,8.17
2018-05-01T05:01:35.942Z,8.40
2018-05-01T05:04:02.986Z,8.50
2018-05-01T05:06:30.012Z,8.13
2018-05-01T05:08:57.041Z,8.00
2018-05-01T05:11:24.085Z,8.03
2018-05-01T05:13:51.112Z,7.97
2018-05-01T05:16:18.163Z,8.33
2018-05-01T05:18:45.206Z,8.43
2018-05-01T05:21:12.235Z,8.03
2018-05-01T05:23:39.283Z,7.80
2018-05-01T05:26:06.708Z,8.10
2018-05-01T05:28:33.776Z,8.03
2018-05-01T05:31:00.785Z,7.57
2018-05-01T05:33:28.119Z,7.63
2018-05-01T05:35:55.135Z,8.00
2018-05-01T05:38:22.188Z,7.87
2018-05-01T05:40:49.343Z,7.73
2018-05-01T05:43:17.636Z,7.80
2018-05-01T05:45:45.502Z,7.80
2018-05-01T05:48:12.543Z,8.10
2018-05-01T05:50:39.592Z,7.70
2018-05-01T05:53:06.634Z,7.97
2018-05-01T05:55:35.360Z,7.90
2018-05-01T05:58:02.414Z,7.70
2018-05-01T06:00:29.432Z,7.90
2018-05-01T06:02:57.910Z,7.80
2018-05-01T06:05:24.931Z,7.80
2018-05-01T06:07:52.027Z,7.57
2018-05-01T06:10:19.310Z,8.00
2018-05-01T06:12:46.785Z,7.77
2018-05-01T06:15:13.984Z,7.17
2018-05-01T06:17:41.144Z,7.80
2018-05-01T06:20:08.555Z,7.70
2018-05-01T06:22:35.679Z,7.50
2018-05-01T06:25:02.691Z,7.43
2018-05-01T06:27:29.742Z,8.10
2018-05-01T06:29:56.769Z,7.90
2018-05-01T06:32:23.902Z,7.60
2018-05-01T06:34:50.986Z,7.83
2018-05-01T06:37:18.049Z,7.67
2018-05-01T06:39:45.078Z,8.10
2018-05-01T06:42:12.147Z,7.47
2018-05-01T06:44:39.211Z,7.87
2018-05-01T06:47:06.401Z,7.53
2018-05-01T06:49:33.493Z,8.00
2018-05-01T06:52:00.517Z,8.03
2018-05-01T06:54:28.099Z,7.27
2018-05-01T06:56:55.171Z,8.20
2018-05-01T06:59:23.097Z,7.67
2018-05-01T07:01:50.149Z,7.77
2018-05-01T07:04:17.246Z,7.80
2018-05-01T07:06:44.308Z,7.70
2018-05-01T07:09:11.340Z,7.70
2018-05-01T07:11:38.362Z,8.03
2018-05-01T07:14:05.375Z,7.80
2018-05-01T07:16:32.390Z,7.80
2018-05-01T07:19:00.641Z,8.00
2018-05-01T07:21:27.725Z,7.90
2018-05-01T07:23:54.801Z,7.37
2018-05-01T07:26:21.821Z,7.80
2018-05-01T07:28:48.870Z,7.80
2018-05-01T07:31:15.920Z,7.73
2018-05-01T07:33:43.081Z,7.90
2018-05-01T07:36:10.216Z,7.47
2018-05-01T07:38:37.331Z,7.80
2018-05-01T07:41:04.345Z,7.90
2018-05-01T07:43:31.560Z,7.70
2018-05-01T07:45:58.577Z,8.10
2018-05-01T07:48:25.685Z,7.77
2018-05-01T07:50:53.409Z,7.53
2018-05-01T07:53:20.483Z,7.17
2018-05-01T07:55:47.592Z,7.50
2018-05-01T07:58:14.716Z,7.80
2018-05-01T08:00:41.839Z,7.60
2018-05-01T08:03:08.871Z,7.17
2018-05-01T08:05:35.902Z,7.90
2018-05-01T08:08:02.948Z,7.57
2018-05-01T08:10:30.030Z,7.00
2018-05-01T08:12:57.120Z,7.27
2018-05-01T08:15:24.163Z,7.53
2018-05-01T08:17:51.352Z,6.90
2018-05-01T08:20:18.409Z,7.47
2018-05-01T08:22:45.484Z,7.50
2018-05-01T08:25:12.660Z,7.50
2018-05-01T08:27:40.699Z,7.23
2018-05-01T08:30:07.787Z,7.67
2018-05-01T08:32:35.669Z,7.47
2018-05-01T08:35:02.777Z,7.80
2018-05-01T08:37:29.992Z,7.30
2018-05-01T08:39:59.750Z,7.60
2018-05-01T08:42:27.398Z,7.57
2018-05-01T08:44:55.888Z,7.50
2018-05-01T08:47:23.000Z,7.70
2018-05-01T08:49:50.640Z,7.57
2018-05-01T08:52:17.666Z,7.57
2018-05-01T08:54:44.986Z,7.27
2018-05-01T08:57:12.035Z,7.73
2018-05-01T08:59:39.204Z,7.80
2018-05-01T09:02:06.287Z,7.10
2018-05-01T09:04:33.378Z,7.30
2018-05-01T09:07:00.453Z,7.60
2018-05-01T09:09:27.532Z,6.97
2018-05-01T09:11:54.588Z,7.67
2018-05-01T09:14:21.720Z,7.20
2018-05-01T09:16:48.738Z,8.20
2018-05-01T09:19:15.902Z,7.30
2018-05-01T09:21:42.979Z,7.70
2018-05-01T09:24:10.323Z,7.40
2018-05-01T09:26:37.391Z,7.80
2018-05-01T09:29:04.585Z,7.00
2018-05-01T09:31:31.822Z,7.50
2018-05-01T09:33:58.965Z,7.50
2018-05-01T09:36:26.028Z,7.57
2018-05-01T09:38:53.126Z,7.40
2018-05-01T09:41:20.143Z,7.60
2018-05-01T09:43:47.463Z,7.60
2018-05-01T09:46:14.485Z,8.77
2018-05-01T09:48:41.577Z,7.67
2018-05-01T09:51:08.638Z,7.60
2018-05-01T09:53:36.578Z,7.50
2018-05-01T09:56:04.228Z,7.70
2018-05-01T09:58:31.864Z,7.40
2018-05-01T10:00:59.798Z,7.97
2018-05-01T10:03:27.556Z,7.67
2018-05-01T10:05:55.203Z,7.80
2018-05-01T10:08:22.881Z,7.90
2018-05-01T10:10:50.476Z,7.83
2018-05-01T10:13:18.138Z,7.60
2018-05-01T10:15:45.792Z,7.53
2018-05-01T10:18:14.106Z,7.67
2018-05-01T10:20:41.783Z,7.37
2018-05-01T10:23:09.515Z,7.50
2018-05-01T10:25:37.153Z,7.20
2018-05-01T10:28:04.903Z,7.27
2018-05-01T10:30:32.493Z,7.60
2018-05-01T10:33:00.060Z,7.40
2018-05-01T10:35:27.623Z,7.80
2018-05-01T10:37:55.221Z,7.87
2018-05-01T10:40:23.104Z,8.10
2018-05-01T10:42:50.820Z,8.50
2018-05-01T10:45:18.455Z,7.90
2018-05-01T10:47:46.264Z,7.77
2018-05-01T10:50:13.903Z,7.67
2018-05-01T10:52:41.449Z,7.53
2018-05-01T10:55:09.026Z,7.50
2018-05-01T10:57:36.584Z,7.40
2018-05-01T11:00:04.212Z,7.57
2018-05-01T11:02:31.779Z,7.67
2018-05-01T11:04:59.335Z,7.70
2018-05-01T11:07:26.883Z,8.03
2018-05-01T11:09:54.465Z,7.70
2018-05-01T11:12:22.030Z,9.43
2018-05-01T11:14:50.361Z,8.40
2018-05-01T11:17:17.953Z,7.97
2018-05-01T11:19:45.536Z,8.07
2018-05-01T11:22:13.081Z,7.60
2018-05-01T11:24:40.934Z,8.00
2018-05-01T11:27:08.706Z,9.60
2018-05-01T11:29:36.288Z,7.07
2018-05-01T11:32:03.848Z,7.37
2018-05-01T11:34:31.397Z,7.60
2018-05-01T11:36:59.003Z,7.80
2018-05-01T11:39:26.610Z,7.33
2018-05-01T11:41:54.185Z,7.70
2018-05-01T11:44:21.782Z,7.63
2018-05-01T11:46:49.408Z,7.57
2018-05-01T11:49:17.015Z,7.67
2018-05-01T11:51:44.912Z,7.23
2018-05-01T11:54:12.548Z,7.63
2018-05-01T11:56:40.251Z,8.07
2018-05-01T11:59:07.847Z,7.67
2018-05-01T12:01:35.669Z,7.73
2018-05-01T12:04:03.279Z,7.77
2018-05-01T12:06:30.990Z,7.70
2018-05-01T12:08:58.886Z,7.30
2018-05-01T12:11:26.501Z,7.80
2018-05-01T12:13:54.243Z,7.90
2018-05-01T12:16:21.860Z,7.80
2018-05-01T12:18:49.421Z,7.50
2018-05-01T12:21:17.065Z,8.10
2018-05-01T12:23:44.728Z,7.50
2018-05-01T12:26:12.656Z,7.73
2018-05-01T12:28:40.299Z,7.57
2018-05-01T12:31:08.727Z,7.47
2018-05-01T12:33:36.719Z,7.80
2018-05-01T12:36:04.307Z,8.00
2018-05-01T12:38:31.985Z,7.27
2018-05-01T12:40:59.643Z,7.70
2018-05-01T12:43:27.378Z,7.80
2018-05-01T12:45:55.491Z,7.70
2018-05-01T12:48:23.085Z,7.57
2018-05-01T12:50:50.988Z,7.60
2018-05-01T12:53:19.302Z,7.40
2018-05-01T12:55:47.850Z,7.40
2018-05-01T12:58:15.405Z,7.77
2018-05-01T13:00:43.032Z,7.73
2018-05-01T13:03:10.738Z,7.77
2018-05-01T13:05:38.392Z,7.70
2018-05-01T13:08:06.282Z,8.10
2018-05-01T13:10:33.991Z,7.50
2018-05-01T13:13:01.665Z,7.63
2018-05-01T13:15:29.263Z,7.90
2018-05-01T13:17:57.117Z,7.37
2018-05-01T13:20:24.817Z,7.70
2018-05-01T13:22:52.441Z,7.77
2018-05-01T13:25:20.004Z,7.43
2018-05-01T13:27:47.780Z,7.60
2018-05-01T13:30:15.639Z,7.77
2018-05-01T13:32:44.001Z,7.83
2018-05-01T13:35:11.562Z,7.70
2018-05-01T13:37:39.195Z,7.43
2018-05-01T13:40:06.823Z,7.57
2018-05-01T13:42:34.439Z,7.70
2018-05-01T13:45:02.014Z,7.70
2018-05-01T13:47:29.617Z,7.80
2018-05-01T13:49:57.192Z,7.67
2018-05-01T13:52:24.844Z,7.57
2018-05-01T13:54:52.438Z,7.50
2018-05-01T13:57:20.354Z,7.50
2018-05-01T13:59:48.568Z,8.17
2018-05-01T14:02:16.139Z,7.60
2018-05-01T14:04:43.843Z,7.70
2018-05-01T14:07:11.524Z,8.00
2018-05-01T14:09:39.178Z,7.80
2018-05-01T14:12:06.794Z,7.70
2018-05-01T14:14:34.446Z,7.73
2018-05-01T14:17:02.055Z,7.50
2018-05-01T14:19:29.710Z,7.40
2018-05-01T14:21:57.300Z,7.57
2018-05-01T14:24:24.916Z,7.60
2018-05-01T14:26:52.576Z,7.50
2018-05-01T14:29:20.920Z,7.50
2018-05-01T14:31:48.530Z,7.60
2018-05-01T14:34:16.116Z,7.73
2018-05-01T14:36:43.729Z,7.80
2018-05-01T14:39:11.419Z,7.47
2018-05-01T14:41:39.233Z,7.60
2018-05-01T14:44:06.818Z,7.63
2018-05-01T14:46:35.005Z,7.80
2018-05-01T14:49:02.609Z,7.53
2018-05-01T14:51:30.575Z,7.80
2018-05-01T14:53:58.239Z,8.03
2018-05-01T14:56:25.829Z,7.90
2018-05-01T14:58:53.990Z,7.70
2018-05-01T15:01:21.662Z,7.70
2018-05-01T15:03:49.311Z,8.00
2018-05-01T15:06:16.951Z,8.07
2018-05-01T15:08:44.701Z,7.60
2018-05-01T15:11:12.329Z,8.57
2018-05-01T15:13:39.964Z,7.97
2018-05-01T15:16:07.605Z,8.03
2018-05-01T15:18:35.277Z,8.30
2018-05-01T15:21:02.962Z,8.00
2018-05-01T15:23:30.654Z,8.20
2018-05-01T15:25:58.443Z,7.67
2018-05-01T15:28:26.085Z,7.87
2018-05-01T15:30:53.697Z,8.10
2018-05-01T15:33:21.436Z,7.77
2018-05-01T15:35:49.439Z,8.10
2018-05-01T15:38:17.005Z,8.30
2018-05-01T15:40:45.096Z,7.90
2018-05-01T15:43:12.770Z,8.50
2018-05-01T15:45:40.464Z,7.80
2018-05-01T15:48:08.084Z,8.10
2018-05-01T15:50:35.783Z,7.87
2018-05-01T15:53:03.628Z,7.90
2018-05-01T15:55:31.313Z,9.07
2018-05-01T15:57:58.941Z,8.20
2018-05-01T16:00:26.702Z,8.03
2018-05-01T16:02:54.646Z,8.00
2018-05-01T16:05:22.444Z,8.23
2018-05-01T16:07:50.048Z,8.00
2018-05-01T16:10:17.906Z,7.80
2018-05-01T16:12:45.828Z,8.00
2018-05-01T16:15:13.461Z,8.00
2018-05-01T16:17:41.483Z,7.73
2018-05-01T16:20:09.208Z,8.43
2018-05-01T16:22:36.818Z,8.00
2018-05-01T16:25:04.485Z,8.00
2018-05-01T16:27:32.200Z,8.17
2018-05-01T16:29:59.793Z,7.77
2018-05-01T16:32:27.523Z,8.03
2018-05-01T16:34:55.502Z,7.90
2018-05-01T16:37:23.594Z,8.20
2018-05-01T16:39:51.299Z,7.93
2018-05-01T16:42:18.898Z,8.77
2018-05-01T16:44:46.601Z,8.50
2018-05-01T16:47:14.205Z,8.10
2018-05-01T16:49:41.826Z,8.30
2018-05-01T16:52:09.649Z,8.13
2018-05-01T16:54:37.388Z,7.67
2018-05-01T16:57:05.216Z,8.00
2018-05-01T16:59:32.874Z,8.10
2018-05-01T17:02:00.432Z,8.10
2018-05-01T17:04:28.179Z,8.47
2018-05-01T17:06:55.735Z,8.33
2018-05-01T17:09:23.381Z,7.87
2018-05-01T17:11:51.148Z,8.03
2018-05-01T17:14:19.039Z,7.80
2018-05-01T17:16:46.706Z,8.27
2018-05-01T17:19:14.537Z,8.30
2018-05-01T17:21:42.218Z,8.50
2018-05-01T17:24:09.900Z,10.67
2018-05-01T17:26:37.583Z,8.40
2018-05-01T17:29:05.233Z,8.93
2018-05-01T17:31:32.949Z,8.43
2018-05-01T17:34:00.706Z,8.30
2018-05-01T17:36:28.316Z,7.90
2018-05-01T17:38:56.055Z,8.30
2018-05-01T17:41:23.834Z,8.40
2018-05-01T17:43:51.535Z,8.30
2018-05-01T17:46:19.292Z,8.30
2018-05-01T17:48:47.207Z,8.20
2018-05-01T17:51:14.808Z,8.30
2018-05-01T17:53:42.791Z,8.10
2018-05-01T17:56:10.417Z,8.20
2018-05-01T17:58:38.054Z,8.00
2018-05-01T18:01:05.803Z,8.60
2018-05-01T18:03:33.545Z,8.70
2018-05-01T18:06:01.347Z,8.20
2018-05-01T18:08:29.025Z,8.50
2018-05-01T18:10:56.851Z,8.90
2018-05-01T18:13:24.511Z,8.53
2018-05-01T18:15:52.342Z,8.80
2018-05-01T18:18:20.077Z,8.30
2018-05-01T18:20:48.004Z,8.40
2018-05-01T18:23:15.975Z,8.30
2018-05-01T18:25:43.736Z,8.53
2018-05-01T18:28:11.854Z,8.53
2018-05-01T18:30:40.083Z,9.10
2018-05-01T18:33:07.791Z,8.40
2018-05-01T18:35:37.296Z,8.40
2018-05-01T18:38:05.270Z,9.07
2018-05-01T18:40:33.800Z,7.90
2018-05-01T18:43:02.020Z,8.27
2018-05-01T18:45:29.887Z,8.30
2018-05-01T18:47:57.619Z,8.57
2018-05-01T18:50:30.179Z,8.20
2018-05-01T18:52:53.388Z,8.63
2018-05-01T18:55:21.300Z,8.40
2018-05-01T18:57:49.109Z,8.40
2018-05-01T19:00:16.743Z,9.07
2018-05-01T19:02:44.410Z,8.40
2018-05-01T19:05:12.097Z,9.33
2018-05-01T19:07:39.719Z,9.30
2018-05-01T19:10:07.361Z,9.90
2018-05-01T19:12:35.096Z,9.93
2018-05-01T19:15:03.152Z,9.50
2018-05-01T19:17:30.990Z,9.40
2018-05-01T19:19:58.725Z,9.40
2018-05-01T19:22:26.692Z,9.00
2018-05-01T19:24:54.501Z,9.00
2018-05-01T19:27:22.228Z,8.60
2018-05-01T19:29:50.057Z,8.80
2018-05-01T19:32:17.808Z,9.10
2018-05-01T19:34:45.511Z,9.80
2018-05-01T19:37:13.195Z,9.77
2018-05-01T19:39:40.997Z,11.67
2018-05-01T19:42:08.754Z,12.60
2018-05-01T19:44:36.540Z,12.73
2018-05-01T19:47:04.367Z,12.40
2018-05-01T19:49:32.237Z,12.13
2018-05-01T19:51:59.947Z,12.20
2018-05-01T19:54:27.610Z,10.63
2018-05-01T19:56:55.388Z,10.47
2018-05-01T19:59:23.132Z,9.70
2018-05-01T20:01:50.957Z,10.40
2018-05-01T20:04:18.792Z,10.10
2018-05-01T20:06:46.524Z,9.70
2018-05-01T20:09:14.248Z,9.13
2018-05-01T20:11:42.141Z,9.33
2018-05-01T20:14:09.849Z,9.53
2018-05-01T20:16:37.574Z,9.40
2018-05-01T20:19:05.240Z,9.03
2018-05-01T20:21:33.014Z,9.50
2018-05-01T20:24:00.605Z,9.40
2018-05-01T20:26:28.229Z,9.70
2018-05-01T20:28:56.408Z,9.37
2018-05-01T20:31:24.126Z,8.80
2018-05-01T20:33:52.058Z,9.30
2018-05-01T20:36:19.778Z,9.30
2018-05-01T20:38:47.872Z,9.60
2018-05-01T20:41:15.514Z,9.60
2018-05-01T20:43:43.150Z,10.10
2018-05-01T20:46:10.807Z,9.70
2018-05-01T20:48:38.735Z,10.00
2018-05-01T20:51:06.599Z,9.73
2018-05-01T20:53:34.342Z,9.53
2018-05-01T20:56:02.013Z,9.40
2018-05-01T20:58:29.555Z,10.67
2018-05-01T21:00:57.238Z,10.27
2018-05-01T21:03:24.809Z,9.27
2018-05-01T21:05:52.823Z,9.70
2018-05-01T21:08:20.402Z,9.80
2018-05-01T21:10:48.080Z,9.67
2018-05-01T21:13:15.964Z,9.63
2018-05-01T21:15:44.389Z,9.97
2018-05-01T21:18:12.003Z,9.87
2018-05-01T21:20:39.837Z,10.30
2018-05-01T21:23:07.450Z,9.30
2018-05-01T21:25:35.080Z,9.30
2018-05-01T21:28:02.644Z,9.17
2018-05-01T21:30:30.281Z,9.40
2018-05-01T21:32:57.865Z,9.00
2018-05-01T21:35:25.588Z,8.80
2018-05-01T21:37:53.678Z,9.10
2018-05-01T21:40:21.483Z,9.37
2018-05-01T21:42:49.252Z,9.27
2018-05-01T21:45:16.940Z,9.90
2018-05-01T21:47:44.530Z,9.27
2018-05-01T21:50:12.229Z,10.13
2018-05-01T21:52:39.984Z,9.80
2018-05-01T21:55:07.990Z,9.30
2018-05-01T21:57:35.787Z,9.70
2018-05-01T22:00:03.470Z,9.27
2018-05-01T22:02:31.067Z,9.90
2018-05-01T22:04:58.698Z,8.90
2018-05-01T22:07:26.292Z,9.50
2018-05-01T22:09:53.931Z,9.40
2018-05-01T22:12:21.520Z,9.30
2018-05-01T22:14:49.504Z,9.10
2018-05-01T22:17:17.125Z,9.73
2018-05-01T22:19:45.106Z,12.87
2018-05-01T22:22:12.721Z,9.27
2018-05-01T22:24:40.582Z,9.33
2018-05-01T22:27:08.712Z,8.93
2018-05-01T22:29:36.323Z,9.37
2018-05-01T22:32:04.257Z,9.30
2018-05-01T22:34:32.138Z,9.80
2018-05-01T22:36:59.723Z,9.40
2018-05-01T22:39:27.328Z,9.07
2018-05-01T22:41:54.944Z,9.20
2018-05-01T22:44:22.549Z,9.60
2018-05-01T22:46:50.136Z,9.47
2018-05-01T22:49:17.715Z,9.23
2018-05-01T22:51:45.308Z,9.47
2018-05-01T22:54:12.894Z,9.87
2018-05-01T22:56:40.516Z,9.40
2018-05-01T22:59:08.076Z,9.00
2018-05-01T23:01:35.730Z,9.20
2018-05-01T23:04:03.372Z,9.10
2018-05-01T23:06:30.971Z,9.93
2018-05-01T23:08:58.604Z,9.20
2018-05-01T23:11:26.314Z,9.30
2018-05-01T23:13:53.932Z,9.43
2018-05-01T23:16:22.209Z,9.37
2018-05-01T23:18:49.806Z,9.93
2018-05-01T23:21:17.445Z,9.77
2018-05-01T23:23:45.140Z,9.33
2018-05-01T23:26:12.769Z,9.87
2018-05-01T23:28:40.444Z,10.20
2018-05-01T23:31:08.033Z,9.40
2018-05-01T23:33:35.668Z,9.93
2018-05-01T23:36:03.287Z,10.07
2018-05-01T23:38:31.259Z,9.67
2018-05-01T23:40:58.830Z,9.97
2018-05-01T23:43:26.411Z,9.80
2018-05-01T23:45:53.976Z,10.20
2018-05-01T23:48:22.539Z,10.00
2018-05-01T23:50:50.142Z,10.50
2018-05-01T23:53:17.767Z,10.20
2018-05-01T23:55:45.427Z,10.27
2018-05-01T23:58:13.064Z,10.40
